Historyczne dane pomiarowe

Dodano dane terminowe – wersja testowa.

Dane z okresu 1951-2019

Wersja bazy: 1.34 [2019-03-16, lista zmian], aktualizacja planowana na 2019-04-15

Dane meteo z obszaru Polski uzyskane na podstawie danych udostępnionych przez Instytut Meteorologii i Gospodarki Wodnej – Państwowy Instytut Badawczy.

 

Wybierz Datę:    

       

TemperaturaWilgotnośćWiatrCiśnienieOpadyŚniegCzas trwania zjawisk
 Stacja t tx tn tng RH VA  wxwx mslp ppp RRR   cm mm wxwxwxwxwxwxwx
1999-08-14 14.2 20.1 8.7 6.9 73.3 12.4 2.0 1.3--1011.8 987.1 0.0 0.0 0.0- 0.0 7.6-------
1999-08-13 15.3 21.3 9.6 8.4 74.3 13.0 4.7 1.7--1012.7 988.2 0.0 0.0 0.0- 0.0 7.5-------
1999-08-12 16.7 21.2 14.4 14.4 81.3 14.9 7.0 0.7--1015.4 990.8 0.0 0.0 0.0- 0.0 2.0-------
1999-08-11 20.5 24.3 16.9 16.0 82.0 19.8 5.7 1.3--1012.5 988.3 9.6 0.0 9.6- 0.0 4.9-------
1999-08-10 21.8 29.7 16.2 14.8 84.8 23.2 6.3 1.7--1008.4 984.5 14.8 10.0 4.8- 0.0 5.7-------
1999-08-09 22.8 31.6 15.4 13.0 72.5 21.7 2.7 1.7--1007.4 983.6 11.5 11.2 0.3- 0.0 10.5-------
1999-08-08 22.9 29.6 16.2 15.2 76.3 22.0 4.7 1.7--1003.5 979.8 0.0 0.0 0.0- 0.0 7.4-------
1999-08-07 21.9 29.7 13.3 10.9 69.3 19.4 1.0 1.7--1007.8 984.0 0.0 0.0 0.0- 0.0 10.9-------
1999-08-06 21.2 27.6 16.0 15.1 78.0 20.1 5.3 1.3--1011.0 987.0 1.7 1.7 0.0- 0.0 7.0-------
1999-08-05 18.2 26.2 9.6 7.4 72.5 16.0 2.3 0.3--1015.2 990.9 0.1 0.0 0.1- 0.0 11.3-------
1999-08-04 16.9 24.6 9.9 8.3 78.0 15.2 3.3 1.3--1016.0 991.5 0.0 0.0 0.0- 0.0 8.5-------
1999-08-03 16.4 22.1 11.1 10.1 82.0 15.3 7.0 1.0--1016.6 992.0 0.0 0.0 0.0- 0.0 1.5-------
1999-08-02 15.4 19.6 11.8 10.0 86.8 15.6 7.7 1.0--1017.9 993.2 3.6 3.2 0.4- 0.0 0.0-------
1999-08-01 17.7 23.3 12.7 11.5 77.8 16.4 5.7 0.7--1017.3 992.8 1.8 1.8 0.0- 0.0 2.8-------
1999-07-31 17.9 25.2 10.2 8.4 65.5 13.9 3.7 1.7--1015.5 991.1 0.0 0.0 0.0- 0.0 10.4-------
1999-07-30 17.2 24.8 9.2 7.5 67.0 13.6 1.3 2.0--1015.8 991.4 0.0 0.0 0.0- 0.0 13.0-------
1999-07-29 17.2 23.7 12.0 10.1 75.8 14.1 2.7 2.7--1018.2 993.7 0.0 0.0 0.0- 0.0 10.9-------
1999-07-28 17.9 23.0 14.4 14.4 87.8 18.3 3.7 1.7--1017.5 993.0 0.2 0.2 0.0- 0.0 5.4-------
1999-07-27 20.7 24.8 17.1 16.0 84.3 19.6 7.0 2.7--1017.2 992.8 19.2 0.0 19.2- 0.0 0.9-------
1999-07-26 20.9 27.7 14.0 11.6 81.0 20.9 3.7 0.7--1015.1 991.0 0.0 0.0 0.0- 0.0 7.1-------
1999-07-25 18.5 25.2 11.4 10.0 77.3 17.2 3.0 1.0--1020.4 995.9 0.0 0.0 0.0- 0.0 8.2-------
1999-07-24 17.6 22.8 13.2 12.6 82.0 16.4 6.7 1.0--1020.4 995.8 0.0 0.0 0.0- 0.0 4.1-------
1999-07-23 16.0 20.7 13.7 13.7 93.3 15.3 7.7 1.3--1014.2 989.5 12.5 12.5 0.0- 0.0 0.0-------
1999-07-22 21.2 25.0 16.8 14.5 64.5 17.1 6.0 1.3--1011.8 987.8 4.5 0.0 4.5- 0.0 5.0-------
1999-07-21 22.7 29.6 14.4 12.5 62.0 18.2 3.7 1.7--1011.9 988.0 0.0 0.0 0.0- 0.0 10.3-------
1999-07-20 21.5 29.6 12.4 10.9 62.5 17.1 0.3 1.0--1014.5 990.4 0.0 0.0 0.0- 0.0 13.2-------
1999-07-19 19.9 28.0 10.8 8.8 63.3 15.4 1.7 0.0--1017.7 993.5 0.0 0.0 0.0- 0.0 13.0-------
1999-07-18 18.2 25.6 9.1 7.4 64.3 14.2 2.0 0.7--1020.2 995.8 0.0 0.0 0.0- 0.0 12.5-------
1999-07-17 16.5 23.4 9.3 7.5 74.3 14.3 2.3 0.7--1020.9 996.2 0.0 0.0 0.0- 0.0 6.8-------
1999-07-16 16.7 22.5 10.6 8.7 74.3 14.4 3.3 2.0--1017.1 992.5 0.0 0.0 0.0- 0.0 9.3-------
1999-07-15 18.0 21.8 15.5 15.4 78.3 15.4 5.3 1.7--1010.3 986.0 0.0 0.0 0.0- 0.0 5.1-------
1999-07-14 22.0 26.2 18.0 18.0 75.5 19.9 6.3 2.3--1003.4 979.6 14.5 0.3 14.2- 0.0 6.1-------
1999-07-13 21.4 25.5 16.5 15.5 77.8 20.4 4.3 1.3--1009.4 985.3 2.9 2.3 0.6- 0.0 4.2-------
1999-07-12 21.5 27.7 15.5 14.4 75.5 20.8 6.0 3.0--1016.0 991.9 2.0 2.0 0.0- 0.0 7.6-------
1999-07-11 20.6 24.7 16.2 15.5 69.3 17.9 5.3 3.0--1019.8 995.5 8.0 8.0 0.0- 0.0 4.6-------
1999-07-10 20.5 25.0 17.5 17.5 78.3 19.2 6.7 3.7--1020.7 996.3 0.0 0.0 0.0- 0.0 5.4-------
1999-07-09 21.4 24.2 18.7 18.0 86.5 22.0 6.7 3.0--1020.5 996.2 0.0 0.0 0.0- 0.0 0.0-------
1999-07-08 21.2 25.3 18.0 18.0 88.5 22.4 6.3 1.7--1016.8 992.5 21.5 0.0 21.5- 0.0 4.5-------
1999-07-07 23.4 29.3 20.4 18.0 84.5 22.6 6.0 0.7--1016.1 991.9 16.4 3.4 13.0- 0.0 3.6-------
1999-07-06 26.9 32.9 19.7 16.4 55.0 20.4 0.3 3.0--1010.6 987.1 0.0 0.0 0.0- 0.0 14.0-------
1999-07-05 24.7 31.8 15.6 12.5 59.0 20.4 0.0 2.7--1013.7 990.0 0.0 0.0 0.0- 0.0 13.8-------
1999-07-04 23.1 31.0 13.3 11.0 61.8 19.4 0.0 1.3--1014.3 990.4 0.0 0.0 0.0- 0.0 13.7-------
1999-07-03 20.8 26.3 15.6 13.8 73.0 17.6 1.0 1.0--1015.6 991.4 0.0 0.0 0.0- 0.0 11.7-------
1999-07-02 20.5 25.6 16.9 15.9 82.0 19.1 3.7 1.3--1014.7 990.4 0.6 0.6 0.0- 0.0 6.2-------
1999-07-01 19.8 26.2 12.4 9.4 67.5 16.1 3.0 0.7--1016.2 991.9 6.4 0.0 6.4- 0.0 12.0-------
1999-06-30 20.5 26.2 14.0 11.5 66.0 16.9 3.3 2.0--1017.5 993.2 0.0 0.0 0.0- 0.0 8.7-------
1999-06-29 20.2 25.2 15.6 13.8 71.3 16.4 3.0 1.7--1019.8 995.4 0.0 0.0 0.0- 0.0 9.8-------
1999-06-28 21.1 28.9 10.9 7.8 55.3 15.7 4.7 1.0--1013.2 989.2 0.0 0.0 0.0- 0.0 10.1-------
1999-06-27 20.8 27.5 11.9 8.5 54.8 14.1 0.3 2.7--1013.7 989.7 0.0 0.0 0.0- 0.0 13.9-------
1999-06-26 16.9 24.0 7.4 5.9 61.0 13.1 0.7 1.3--1015.7 991.3 0.0 0.0 0.0- 0.0 14.6-------
1999-06-25 14.2 19.6 8.3 7.3 70.0 11.7 1.7 1.7--1020.3 995.5 0.0 0.0 0.0- 0.0 11.1-------
1999-06-24 11.3 12.5 9.8 9.8 93.5 12.3 8.0 0.9--1023.0 997.7 4.2 4.2 0.0- 0.0 0.0-------
1999-06-23 9.7 11.2 8.1 8.1 97.8 11.8 8.0 3.3--1017.2 991.9 20.9 13.2 7.7- 0.0 0.0-------
1999-06-22 12.7 16.1 9.4 9.4 98.0 13.9 8.0 3.3--1005.3 980.5 40.8 20.9 19.9- 0.0 0.0-------
1999-06-21 17.8 22.6 15.4 15.0 90.0 18.8 7.0 0.7--1006.0 981.8 34.4 17.8 16.6- 0.0 1.3-------
1999-06-20 18.8 22.1 15.4 15.0 80.3 17.6 6.7 1.3--1015.3 990.9 2.0 0.0 2.0- 0.0 1.6-------
1999-06-19 17.4 21.5 14.4 14.4 83.8 17.3 4.7 1.7--1016.8 992.3 0.0 0.0 0.0- 0.0 4.3-------
1999-06-18 19.3 22.4 17.5 17.0 91.8 19.9 7.3 0.0--1011.2 986.9 5.0 5.0 0.0- 0.0 0.9-------
1999-06-17 20.0 24.2 17.4 17.4 89.0 20.7 6.3 1.0--1015.5 991.2 6.0 4.0 2.0- 0.0 3.8-------
1999-06-16 18.8 22.0 16.5 16.5 93.0 20.0 8.0 0.3--1021.2 996.6 9.2 2.3 6.9- 0.0 0.0-------
273.2 ms

 

Źródłem pochodzenia danych jest Instytut Meteorologii i Gospodarki Wodnej – Państwowy Instytut Badawczy. Dane Instytutu Meteorologii i Gospodarki Wodnej – Państwowego Instytutu Badawczego zostały przetworzone.

Dane źródłowe można odnaleźć na stronie https://dane.imgw.pl